createdAt,value
2018-10-12T00:00:01.187Z,15.42
2018-10-12T00:01:01.182Z,15.37
2018-10-12T00:02:01.199Z,15.28
2018-10-12T00:03:01.186Z,15.22
2018-10-12T00:04:01.201Z,15.24
2018-10-12T00:05:01.196Z,15.24
2018-10-12T00:06:01.189Z,15.14
2018-10-12T00:07:01.186Z,15.11
2018-10-12T00:08:01.411Z,15.00
2018-10-12T00:09:01.220Z,14.99
2018-10-12T00:10:01.424Z,15.02
2018-10-12T00:11:01.204Z,15.03
2018-10-12T00:12:01.207Z,14.99
2018-10-12T00:13:01.203Z,14.85
2018-10-12T00:14:01.198Z,14.91
2018-10-12T00:15:01.203Z,14.92
2018-10-12T00:16:01.208Z,14.91
2018-10-12T00:17:01.215Z,14.91
2018-10-12T00:18:01.197Z,14.82
2018-10-12T00:19:01.212Z,14.77
2018-10-12T00:20:01.203Z,14.68
2018-10-12T00:21:01.213Z,14.63
2018-10-12T00:22:01.218Z,14.66
2018-10-12T00:23:01.418Z,14.65
2018-10-12T00:24:01.213Z,14.60
2018-10-12T00:25:01.204Z,14.53
2018-10-12T00:26:01.204Z,14.51
2018-10-12T00:27:01.204Z,14.58
2018-10-12T00:28:01.210Z,14.58
2018-10-12T00:29:01.215Z,14.66
2018-10-12T00:30:01.207Z,14.62
2018-10-12T00:31:01.213Z,14.70
2018-10-12T00:32:01.209Z,14.68
2018-10-12T00:33:01.223Z,14.73
2018-10-12T00:34:01.209Z,14.77
2018-10-12T00:35:01.210Z,14.70
2018-10-12T00:36:01.209Z,14.72
2018-10-12T00:37:01.210Z,14.69
2018-10-12T00:38:01.211Z,14.68
2018-10-12T00:39:01.240Z,14.62
2018-10-12T00:40:01.212Z,14.50
2018-10-12T00:41:01.214Z,14.54
2018-10-12T00:42:01.216Z,14.48
2018-10-12T00:43:01.233Z,14.37
2018-10-12T00:44:01.225Z,14.37
2018-10-12T00:45:01.426Z,14.55
2018-10-12T00:46:01.238Z,14.51
2018-10-12T00:47:01.216Z,14.54
2018-10-12T00:48:01.230Z,14.50
2018-10-12T00:49:01.229Z,14.41
2018-10-12T00:50:01.239Z,14.43
2018-10-12T00:51:01.421Z,14.44
2018-10-12T00:52:01.219Z,14.51
2018-10-12T00:53:01.425Z,14.37
2018-10-12T00:54:01.219Z,14.48
2018-10-12T00:55:01.221Z,14.51
2018-10-12T00:56:01.220Z,14.55
2018-10-12T00:57:01.220Z,14.53
2018-10-12T00:58:01.226Z,14.59
2018-10-12T00:59:01.443Z,14.63
2018-10-12T01:00:01.223Z,14.65
2018-10-12T01:01:01.228Z,14.60
2018-10-12T01:02:01.237Z,14.50
2018-10-12T01:03:01.430Z,14.50
2018-10-12T01:04:01.236Z,14.51
2018-10-12T01:05:01.245Z,14.50
2018-10-12T01:06:01.251Z,14.45
2018-10-12T01:07:01.440Z,14.50
2018-10-12T01:08:01.261Z,14.47
2018-10-12T01:09:01.229Z,14.54
2018-10-12T01:10:01.442Z,14.41
2018-10-12T01:11:01.250Z,14.53
2018-10-12T01:12:01.248Z,14.50
2018-10-12T01:13:01.435Z,14.53
2018-10-12T01:14:01.227Z,14.55
2018-10-12T01:15:01.232Z,14.53
2018-10-12T01:16:01.242Z,14.54
2018-10-12T01:17:01.233Z,14.53
2018-10-12T01:18:01.458Z,14.51
2018-10-12T01:19:01.248Z,14.55
2018-10-12T01:20:01.251Z,14.55
2018-10-12T01:21:01.236Z,14.58
2018-10-12T01:22:01.236Z,14.66
2018-10-12T01:23:01.234Z,14.63
2018-10-12T01:24:01.239Z,14.70
2018-10-12T01:25:01.436Z,14.66
2018-10-12T01:26:01.249Z,14.66
2018-10-12T01:27:01.249Z,14.66
2018-10-12T01:28:01.239Z,14.73
2018-10-12T01:29:01.249Z,14.69
2018-10-12T01:30:01.237Z,14.73
2018-10-12T01:31:01.241Z,14.65
2018-10-12T01:32:01.246Z,14.60
2018-10-12T01:33:01.440Z,14.72
2018-10-12T01:34:01.253Z,14.65
2018-10-12T01:35:01.445Z,14.73
2018-10-12T01:36:01.238Z,14.82
2018-10-12T01:37:01.442Z,14.82
2018-10-12T01:38:01.243Z,14.82
2018-10-12T01:39:01.250Z,14.81
2018-10-12T01:40:01.256Z,14.85
2018-10-12T01:41:01.242Z,14.82
2018-10-12T01:42:01.247Z,14.79
2018-10-12T01:43:01.244Z,14.79
2018-10-12T01:44:01.448Z,14.89
2018-10-12T01:45:01.246Z,14.84
2018-10-12T01:46:01.243Z,14.85
2018-10-12T01:47:01.457Z,14.91
2018-10-12T01:48:01.244Z,14.89
2018-10-12T01:49:01.449Z,14.86
2018-10-12T01:50:01.450Z,14.85
2018-10-12T01:51:01.249Z,14.94
2018-10-12T01:52:01.260Z,15.00
2018-10-12T01:53:01.454Z,15.06
2018-10-12T01:54:01.248Z,15.06
2018-10-12T01:55:01.452Z,15.06
2018-10-12T01:56:01.257Z,15.04
2018-10-12T01:57:01.250Z,15.10
2018-10-12T01:58:01.255Z,15.18
2018-10-12T01:59:01.456Z,15.21
2018-10-12T02:00:01.274Z,15.24
2018-10-12T02:01:01.255Z,15.25
2018-10-12T02:02:01.274Z,15.21
2018-10-12T02:03:01.271Z,15.31
2018-10-12T02:04:01.254Z,15.36
2018-10-12T02:05:01.266Z,15.39
2018-10-12T02:06:01.256Z,15.35
2018-10-12T02:07:01.275Z,15.51
2018-10-12T02:08:01.258Z,15.49
2018-10-12T02:09:01.283Z,15.49
2018-10-12T02:10:01.347Z,15.54
2018-10-12T02:11:01.261Z,15.57
2018-10-12T02:12:01.261Z,15.68
2018-10-12T02:13:01.274Z,15.68
2018-10-12T02:14:01.272Z,15.62
2018-10-12T02:15:01.263Z,15.80
2018-10-12T02:16:01.467Z,15.83
2018-10-12T02:17:01.471Z,15.80
2018-10-12T02:18:01.265Z,15.79
2018-10-12T02:19:01.280Z,15.83
2018-10-12T02:20:01.296Z,15.84
2018-10-12T02:21:01.282Z,15.94
2018-10-12T02:22:01.266Z,15.98
2018-10-12T02:23:01.286Z,15.90
2018-10-12T02:24:01.301Z,15.88
2018-10-12T02:25:01.285Z,15.98
2018-10-12T02:26:01.276Z,16.04
2018-10-12T02:27:01.279Z,16.13
2018-10-12T02:28:01.487Z,16.04
2018-10-12T02:29:01.275Z,16.12
2018-10-12T02:30:01.292Z,16.16
2018-10-12T02:31:01.289Z,16.15
2018-10-12T02:32:01.280Z,16.21
2018-10-12T02:33:01.275Z,16.12
2018-10-12T02:34:01.279Z,16.15
2018-10-12T02:35:01.279Z,16.09
2018-10-12T02:36:01.290Z,16.16
2018-10-12T02:37:01.487Z,16.17
2018-10-12T02:38:01.283Z,16.12
2018-10-12T02:39:01.284Z,16.16
2018-10-12T02:40:01.290Z,16.12
2018-10-12T02:41:01.297Z,16.09
2018-10-12T02:42:01.299Z,16.02
2018-10-12T02:43:01.501Z,16.00
2018-10-12T02:44:01.502Z,15.95
2018-10-12T02:45:01.287Z,16.02
2018-10-12T02:46:01.304Z,16.00
2018-10-12T02:47:01.290Z,15.86
2018-10-12T02:48:01.519Z,15.90
2018-10-12T02:49:01.506Z,15.94
2018-10-12T02:50:01.326Z,15.84
2018-10-12T02:51:01.315Z,15.92
2018-10-12T02:52:01.307Z,15.95
2018-10-12T02:53:01.309Z,15.98
2018-10-12T02:54:01.303Z,15.86
2018-10-12T02:55:01.299Z,15.88
2018-10-12T02:56:01.315Z,15.83
2018-10-12T02:57:01.504Z,15.79
2018-10-12T02:58:01.299Z,15.84
2018-10-12T02:59:01.312Z,15.88
2018-10-12T03:00:01.507Z,15.82
2018-10-12T03:01:01.504Z,15.92
2018-10-12T03:02:01.323Z,15.88
2018-10-12T03:03:01.319Z,15.88
2018-10-12T03:04:01.320Z,15.88
2018-10-12T03:05:01.313Z,15.86
2018-10-12T03:06:01.320Z,15.79
2018-10-12T03:07:01.330Z,15.73
2018-10-12T03:08:01.313Z,15.75
2018-10-12T03:09:01.311Z,15.83
2018-10-12T03:10:01.322Z,15.75
2018-10-12T03:11:01.327Z,15.88
2018-10-12T03:12:01.540Z,15.82
2018-10-12T03:13:01.317Z,15.90
2018-10-12T03:14:01.329Z,15.91
2018-10-12T03:15:01.519Z,15.92
2018-10-12T03:16:01.324Z,15.90
2018-10-12T03:17:01.329Z,15.92
2018-10-12T03:18:01.319Z,15.92
2018-10-12T03:19:01.528Z,15.94
2018-10-12T03:20:01.333Z,15.91
2018-10-12T03:21:01.335Z,15.91
2018-10-12T03:22:01.348Z,15.91
2018-10-12T03:23:01.335Z,15.92
2018-10-12T03:24:01.337Z,15.83
2018-10-12T03:25:01.325Z,15.88
2018-10-12T03:26:01.326Z,15.84
2018-10-12T03:27:01.529Z,15.92
2018-10-12T03:28:01.329Z,15.92
2018-10-12T03:29:01.328Z,15.91
2018-10-12T03:30:01.335Z,15.92
2018-10-12T03:31:01.542Z,15.94
2018-10-12T03:32:01.350Z,15.84
2018-10-12T03:33:01.345Z,15.88
2018-10-12T03:34:01.340Z,15.88
2018-10-12T03:35:01.568Z,15.83
2018-10-12T03:36:01.371Z,15.88
2018-10-12T03:37:01.376Z,15.82
2018-10-12T03:38:01.341Z,15.98
2018-10-12T03:39:01.361Z,15.86
2018-10-12T03:40:01.352Z,15.92
2018-10-12T03:41:01.355Z,15.91
2018-10-12T03:42:01.359Z,15.95
2018-10-12T03:43:01.356Z,15.88
2018-10-12T03:44:01.548Z,15.94
2018-10-12T03:45:01.347Z,15.94
2018-10-12T03:46:01.551Z,15.91
2018-10-12T03:47:01.350Z,15.97
2018-10-12T03:48:01.552Z,15.97
2018-10-12T03:49:01.348Z,15.90
2018-10-12T03:50:01.362Z,15.90
2018-10-12T03:51:01.363Z,15.91
2018-10-12T03:52:01.460Z,15.84
2018-10-12T03:53:01.365Z,15.86
2018-10-12T03:54:01.572Z,15.91
2018-10-12T03:55:01.360Z,15.86
2018-10-12T03:56:01.361Z,15.82
2018-10-12T03:57:01.358Z,15.88
2018-10-12T03:58:01.385Z,15.88
2018-10-12T03:59:01.374Z,15.88
2018-10-12T04:00:01.365Z,15.86
2018-10-12T04:01:01.361Z,15.84
2018-10-12T04:02:01.580Z,15.77
2018-10-12T04:03:01.367Z,15.77
2018-10-12T04:04:01.379Z,15.73
2018-10-12T04:05:01.379Z,15.67
2018-10-12T04:06:01.369Z,15.65
2018-10-12T04:07:01.374Z,15.59
2018-10-12T04:08:01.369Z,15.62
2018-10-12T04:09:01.382Z,15.58
2018-10-12T04:10:01.380Z,15.54
2018-10-12T04:11:01.371Z,15.58
2018-10-12T04:12:01.594Z,15.44
2018-10-12T04:13:01.373Z,15.43
2018-10-12T04:14:01.388Z,15.43
2018-10-12T04:15:01.604Z,15.47
2018-10-12T04:16:01.623Z,15.43
2018-10-12T04:17:01.396Z,15.42
2018-10-12T04:18:01.383Z,15.37
2018-10-12T04:19:01.388Z,15.47
2018-10-12T04:20:01.430Z,15.36
2018-10-12T04:21:01.398Z,15.22
2018-10-12T04:22:01.393Z,15.27
2018-10-12T04:23:01.385Z,15.18
2018-10-12T04:24:01.591Z,15.14
2018-10-12T04:25:01.398Z,15.07
2018-10-12T04:26:01.411Z,15.09
2018-10-12T04:27:01.408Z,15.15
2018-10-12T04:28:01.388Z,15.02
2018-10-12T04:29:01.398Z,15.00
2018-10-12T04:30:01.398Z,15.03
2018-10-12T04:31:01.409Z,14.94
2018-10-12T04:32:01.416Z,14.91
2018-10-12T04:33:01.422Z,14.88
2018-10-12T04:34:01.404Z,14.81
2018-10-12T04:35:01.394Z,14.79
2018-10-12T04:36:01.395Z,14.81
2018-10-12T04:37:01.393Z,14.77
2018-10-12T04:38:01.395Z,14.68
2018-10-12T04:39:01.408Z,14.68
2018-10-12T04:40:01.396Z,14.53
2018-10-12T04:41:01.395Z,14.50
2018-10-12T04:42:01.605Z,14.44
2018-10-12T04:43:01.398Z,14.44
2018-10-12T04:44:01.403Z,14.41
2018-10-12T04:45:01.619Z,14.41
2018-10-12T04:46:01.400Z,14.44
2018-10-12T04:47:01.427Z,14.36
2018-10-12T04:48:01.614Z,14.41
2018-10-12T04:49:01.439Z,14.45
2018-10-12T04:50:01.436Z,14.37
2018-10-12T04:51:01.430Z,14.32
2018-10-12T04:52:01.404Z,14.23
2018-10-12T04:53:01.608Z,14.12
2018-10-12T04:54:01.416Z,14.12
2018-10-12T04:55:01.422Z,14.03
2018-10-12T04:56:01.425Z,13.99
2018-10-12T04:57:01.416Z,13.96
2018-10-12T04:58:01.421Z,13.92
2018-10-12T04:59:01.406Z,14.04
2018-10-12T05:00:01.409Z,13.99
2018-10-12T05:01:01.672Z,14.04
2018-10-12T05:02:01.409Z,14.03
2018-10-12T05:03:01.408Z,14.03
2018-10-12T05:04:01.407Z,13.99
2018-10-12T05:05:01.410Z,13.99
2018-10-12T05:06:01.420Z,13.92
2018-10-12T05:07:01.422Z,13.93
2018-10-12T05:08:01.409Z,13.79
2018-10-12T05:09:01.427Z,13.81
2018-10-12T05:10:01.415Z,13.77
2018-10-12T05:11:01.618Z,13.75
2018-10-12T05:12:01.424Z,13.81
2018-10-12T05:13:01.412Z,13.68
2018-10-12T05:14:01.427Z,13.63
2018-10-12T05:15:01.613Z,13.67
2018-10-12T05:16:01.412Z,13.54
2018-10-12T05:17:01.422Z,13.59
2018-10-12T05:18:01.410Z,13.52
2018-10-12T05:19:01.413Z,13.53
2018-10-12T05:20:01.426Z,13.63
2018-10-12T05:21:01.413Z,13.52
2018-10-12T05:22:01.503Z,13.57
2018-10-12T05:23:01.622Z,13.54
2018-10-12T05:24:01.411Z,13.56
2018-10-12T05:25:01.625Z,13.56
2018-10-12T05:26:01.425Z,13.59
2018-10-12T05:27:01.414Z,13.65
2018-10-12T05:28:01.424Z,13.54
2018-10-12T05:29:01.668Z,13.54
2018-10-12T05:30:01.444Z,13.54
2018-10-12T05:31:01.413Z,13.62
2018-10-12T05:32:01.415Z,13.54
2018-10-12T05:33:01.413Z,13.54
2018-10-12T05:34:01.418Z,13.57
2018-10-12T05:35:01.422Z,13.54
2018-10-12T05:36:01.635Z,13.52
2018-10-12T05:37:01.412Z,13.44
2018-10-12T05:38:01.412Z,13.47
2018-10-12T05:39:01.416Z,13.42
2018-10-12T05:40:01.415Z,13.37
2018-10-12T05:41:01.428Z,13.31
2018-10-12T05:42:01.617Z,13.37
2018-10-12T05:43:01.462Z,13.37
2018-10-12T05:44:01.414Z,13.37
2018-10-12T05:45:01.625Z,13.41
2018-10-12T05:46:01.414Z,13.37
2018-10-12T05:47:01.627Z,13.39
2018-10-12T05:48:01.426Z,13.44
2018-10-12T05:49:01.537Z,13.28
2018-10-12T05:50:01.425Z,13.37
2018-10-12T05:51:01.412Z,13.39
2018-10-12T05:52:01.628Z,13.38
2018-10-12T05:53:01.436Z,13.46
2018-10-12T05:54:01.625Z,13.46
2018-10-12T05:55:01.444Z,13.49
2018-10-12T05:56:01.616Z,13.46
2018-10-12T05:57:01.437Z,13.47
2018-10-12T05:58:01.411Z,13.53
2018-10-12T05:59:01.616Z,13.57
2018-10-12T06:00:01.411Z,13.52
2018-10-12T06:01:01.627Z,13.53
2018-10-12T06:02:01.411Z,13.65
2018-10-12T06:03:01.422Z,13.68
2018-10-12T06:04:01.412Z,13.60
2018-10-12T06:05:01.413Z,13.63
2018-10-12T06:06:01.423Z,13.59
2018-10-12T06:07:01.423Z,13.62
2018-10-12T06:08:01.425Z,13.70
2018-10-12T06:09:01.410Z,13.83
2018-10-12T06:10:01.530Z,13.75
2018-10-12T06:11:01.410Z,13.75
2018-10-12T06:12:01.420Z,13.75
2018-10-12T06:13:01.409Z,13.85
2018-10-12T06:14:01.414Z,13.75
2018-10-12T06:15:01.411Z,13.92
2018-10-12T06:16:01.689Z,13.87
2018-10-12T06:17:01.408Z,13.92
2018-10-12T06:18:01.617Z,13.87
2018-10-12T06:19:01.628Z,13.85
2018-10-12T06:20:01.409Z,13.93
2018-10-12T06:21:01.422Z,13.85
2018-10-12T06:22:01.410Z,13.89
2018-10-12T06:23:01.612Z,13.92
2018-10-12T06:24:01.411Z,14.00
2018-10-12T06:25:01.409Z,13.87
2018-10-12T06:26:01.613Z,13.95
2018-10-12T06:27:01.412Z,13.90
2018-10-12T06:28:01.410Z,13.95
2018-10-12T06:29:01.409Z,14.04
2018-10-12T06:30:01.613Z,14.10
2018-10-12T06:31:01.637Z,14.08
2018-10-12T06:32:01.615Z,14.20
2018-10-12T06:33:01.465Z,14.11
2018-10-12T06:34:01.416Z,14.14
2018-10-12T06:35:01.428Z,14.22
2018-10-12T06:36:01.416Z,14.17
2018-10-12T06:37:01.420Z,14.20
2018-10-12T06:38:01.413Z,14.30
2018-10-12T06:39:01.413Z,14.28
2018-10-12T06:40:01.437Z,14.37
2018-10-12T06:41:01.586Z,14.33
2018-10-12T06:42:01.423Z,14.35
2018-10-12T06:43:01.417Z,14.41
2018-10-12T06:44:01.428Z,14.44
2018-10-12T06:45:01.422Z,14.40
2018-10-12T06:46:01.632Z,14.47
2018-10-12T06:47:01.426Z,14.48
2018-10-12T06:48:01.629Z,14.50
2018-10-12T06:49:01.421Z,14.58
2018-10-12T06:50:01.416Z,14.65
2018-10-12T06:51:01.638Z,14.72
2018-10-12T06:52:01.416Z,14.66
2018-10-12T06:53:01.617Z,14.77
2018-10-12T06:54:01.446Z,14.70
2018-10-12T06:55:01.430Z,14.77
2018-10-12T06:56:01.429Z,14.77
2018-10-12T06:57:01.417Z,14.81
2018-10-12T06:58:01.445Z,14.89
2018-10-12T06:59:01.428Z,14.84
2018-10-12T07:00:01.531Z,14.86
2018-10-12T07:01:01.419Z,14.92
2018-10-12T07:02:01.632Z,14.89
2018-10-12T07:03:01.429Z,14.97
2018-10-12T07:04:01.429Z,15.02
2018-10-12T07:05:01.435Z,14.99
2018-10-12T07:06:01.434Z,15.14
2018-10-12T07:07:01.441Z,15.10
2018-10-12T07:08:01.418Z,15.28
2018-10-12T07:09:01.639Z,15.28
2018-10-12T07:10:01.435Z,15.35
2018-10-12T07:11:01.447Z,15.46
2018-10-12T07:12:01.436Z,15.51
2018-10-12T07:13:01.433Z,15.52
2018-10-12T07:14:01.422Z,15.64
2018-10-12T07:15:01.423Z,15.67
2018-10-12T07:16:01.423Z,15.64
2018-10-12T07:17:01.425Z,15.79
2018-10-12T07:18:01.438Z,15.82
2018-10-12T07:19:01.425Z,15.73
2018-10-12T07:20:01.433Z,15.82
2018-10-12T07:21:01.425Z,15.86
2018-10-12T07:22:01.429Z,15.90
2018-10-12T07:23:01.430Z,15.94
2018-10-12T07:24:01.441Z,15.98
2018-10-12T07:25:01.426Z,15.97
2018-10-12T07:26:01.505Z,15.98
2018-10-12T07:27:01.440Z,16.10
2018-10-12T07:28:01.431Z,16.02
2018-10-12T07:29:01.432Z,16.15
2018-10-12T07:30:01.445Z,16.09
2018-10-12T07:31:01.434Z,16.17
2018-10-12T07:32:01.445Z,16.26
2018-10-12T07:33:01.436Z,16.33
2018-10-12T07:34:01.447Z,16.29
2018-10-12T07:35:01.437Z,16.50
2018-10-12T07:36:01.444Z,16.60
2018-10-12T07:37:01.514Z,16.74
2018-10-12T07:38:01.454Z,16.89
2018-10-12T07:39:01.439Z,16.97
2018-10-12T07:40:01.454Z,17.14
2018-10-12T07:41:01.455Z,17.24
2018-10-12T07:42:01.469Z,17.38
2018-10-12T07:43:01.450Z,17.54
2018-10-12T07:44:01.464Z,17.57
2018-10-12T07:45:01.473Z,17.64
2018-10-12T07:46:01.445Z,17.74
2018-10-12T07:47:01.449Z,17.76
2018-10-12T07:48:01.531Z,17.76
2018-10-12T07:49:01.496Z,17.79
2018-10-12T07:50:01.449Z,17.87
2018-10-12T07:51:01.459Z,17.83
2018-10-12T07:52:01.451Z,17.90
2018-10-12T07:53:01.506Z,17.97
2018-10-12T07:54:01.480Z,18.01
2018-10-12T07:55:01.473Z,18.04
2018-10-12T07:56:01.475Z,18.25
2018-10-12T07:57:01.469Z,18.26
2018-10-12T07:58:01.468Z,18.41
2018-10-12T07:59:01.471Z,18.44
2018-10-12T08:00:01.466Z,18.74
2018-10-12T08:01:01.464Z,18.73
2018-10-12T08:02:01.469Z,18.90
2018-10-12T08:03:01.465Z,19.07
2018-10-12T08:04:01.489Z,19.02
2018-10-12T08:05:01.675Z,19.09
2018-10-12T08:06:01.473Z,19.11
2018-10-12T08:07:01.472Z,19.11
2018-10-12T08:08:01.476Z,19.26
2018-10-12T08:09:01.472Z,19.30
2018-10-12T08:10:01.472Z,19.22
2018-10-12T08:11:01.479Z,19.26
2018-10-12T08:12:01.475Z,19.22
2018-10-12T08:13:01.480Z,19.22
2018-10-12T08:14:01.519Z,19.18
2018-10-12T08:15:01.479Z,19.15
2018-10-12T08:16:01.483Z,19.26
2018-10-12T08:17:01.483Z,19.33
2018-10-12T08:18:01.483Z,19.37
2018-10-12T08:19:01.494Z,19.45
2018-10-12T08:20:01.488Z,19.45
2018-10-12T08:21:01.488Z,19.48
2018-10-12T08:22:01.489Z,19.56
2018-10-12T08:23:01.490Z,19.59
2018-10-12T08:24:01.494Z,19.71
2018-10-12T08:25:01.498Z,19.74
2018-10-12T08:26:01.506Z,19.79
2018-10-12T08:27:01.592Z,19.84
2018-10-12T08:28:01.501Z,19.88
2018-10-12T08:29:01.510Z,19.76
2018-10-12T08:30:01.514Z,19.84
2018-10-12T08:31:01.505Z,19.77
2018-10-12T08:32:01.519Z,19.76
2018-10-12T08:33:01.533Z,19.82
2018-10-12T08:34:01.525Z,19.64
2018-10-12T08:35:01.513Z,19.67
2018-10-12T08:36:01.545Z,19.66
2018-10-12T08:37:01.510Z,19.62
2018-10-12T08:38:01.524Z,19.63
2018-10-12T08:39:01.534Z,19.73
2018-10-12T08:40:01.733Z,19.77
2018-10-12T08:41:01.519Z,19.84
2018-10-12T08:42:01.521Z,19.86
2018-10-12T08:43:01.527Z,19.95
2018-10-12T08:44:01.528Z,20.00
2018-10-12T08:45:01.545Z,19.95
2018-10-12T08:46:01.528Z,19.96
2018-10-12T08:47:01.544Z,19.96
2018-10-12T08:48:01.736Z,19.94
2018-10-12T08:49:01.548Z,19.85
2018-10-12T08:50:01.547Z,19.92
2018-10-12T08:51:01.553Z,19.85
2018-10-12T08:52:01.564Z,19.92
2018-10-12T08:53:01.541Z,19.91
2018-10-12T08:54:01.560Z,19.77
2018-10-12T08:55:01.555Z,19.85
2018-10-12T08:56:01.546Z,19.82
2018-10-12T08:57:01.550Z,19.82
2018-10-12T08:58:01.554Z,19.82
2018-10-12T08:59:01.567Z,19.71
2018-10-12T09:00:01.557Z,19.86
2018-10-12T09:01:01.559Z,19.81
2018-10-12T09:02:01.763Z,19.76
2018-10-12T09:03:01.852Z,19.77
2018-10-12T09:04:01.563Z,19.82
2018-10-12T09:05:01.575Z,19.82
2018-10-12T09:06:01.566Z,19.81
2018-10-12T09:07:01.568Z,19.84
2018-10-12T09:08:01.588Z,19.79
2018-10-12T09:09:01.573Z,19.85
2018-10-12T09:10:01.580Z,19.94
2018-10-12T09:11:01.590Z,20.09
2018-10-12T09:12:01.607Z,20.09
2018-10-12T09:13:01.586Z,20.19
2018-10-12T09:14:01.607Z,20.14
2018-10-12T09:15:01.596Z,20.13
2018-10-12T09:16:01.792Z,20.25
2018-10-12T09:17:01.601Z,20.22
2018-10-12T09:18:01.594Z,20.28
2018-10-12T09:19:01.810Z,20.21
2018-10-12T09:20:01.596Z,20.32
2018-10-12T09:21:01.600Z,20.40
2018-10-12T09:22:01.601Z,20.34
2018-10-12T09:23:01.623Z,20.31
2018-10-12T09:24:01.615Z,20.31
2018-10-12T09:25:01.608Z,20.37
2018-10-12T09:26:01.607Z,20.44
2018-10-12T09:27:01.610Z,20.52
2018-10-12T09:28:01.614Z,20.52
2018-10-12T09:29:01.617Z,20.63
2018-10-12T09:30:01.644Z,20.62
2018-10-12T09:31:01.836Z,20.65
2018-10-12T09:32:01.638Z,20.69
2018-10-12T09:33:01.623Z,20.81
2018-10-12T09:34:01.628Z,20.92
2018-10-12T09:35:01.642Z,20.85
2018-10-12T09:36:01.647Z,21.00
2018-10-12T09:37:01.666Z,20.96
2018-10-12T09:38:01.851Z,20.99
2018-10-12T09:39:01.637Z,21.00
2018-10-12T09:40:01.668Z,20.96
2018-10-12T09:41:01.845Z,20.99
2018-10-12T09:42:01.654Z,20.85
2018-10-12T09:43:01.652Z,20.77
2018-10-12T09:44:01.652Z,20.67
2018-10-12T09:45:01.854Z,20.62
2018-10-12T09:46:01.859Z,20.52
2018-10-12T09:47:01.670Z,20.44
2018-10-12T09:48:01.659Z,20.43
2018-10-12T09:49:01.688Z,20.43
2018-10-12T09:50:01.660Z,20.55
2018-10-12T09:51:01.682Z,20.51
2018-10-12T09:52:01.670Z,20.51
2018-10-12T09:53:01.674Z,20.59
2018-10-12T09:54:01.686Z,20.69
2018-10-12T09:55:01.697Z,20.72
2018-10-12T09:56:01.743Z,20.66
2018-10-12T09:57:01.691Z,20.82
2018-10-12T09:58:01.690Z,20.82
2018-10-12T09:59:01.696Z,20.90
2018-10-12T10:00:01.700Z,20.97
2018-10-12T10:01:01.698Z,21.09
2018-10-12T10:02:01.813Z,21.03
2018-10-12T10:03:01.711Z,21.20
2018-10-12T10:04:01.706Z,21.24
2018-10-12T10:05:01.731Z,21.32
2018-10-12T10:06:01.709Z,21.39
2018-10-12T10:07:01.717Z,21.46
2018-10-12T10:08:01.768Z,21.55
2018-10-12T10:09:01.809Z,21.57
2018-10-12T10:10:01.712Z,21.61
2018-10-12T10:11:01.827Z,21.66
2018-10-12T10:12:01.718Z,21.67
2018-10-12T10:13:01.757Z,21.60
2018-10-12T10:14:01.722Z,21.61
2018-10-12T10:15:01.736Z,21.67
2018-10-12T10:16:01.742Z,21.75
2018-10-12T10:17:01.729Z,21.75
2018-10-12T10:18:01.851Z,21.73
2018-10-12T10:19:01.750Z,21.98
2018-10-12T10:20:01.739Z,22.04
2018-10-12T10:21:01.742Z,21.95
2018-10-12T10:22:01.757Z,21.98
2018-10-12T10:23:01.748Z,22.06
2018-10-12T10:24:01.752Z,22.08
2018-10-12T10:25:01.787Z,22.08
2018-10-12T10:26:01.772Z,22.14
2018-10-12T10:27:01.757Z,22.11
2018-10-12T10:28:01.762Z,22.20
2018-10-12T10:29:01.823Z,22.20
2018-10-12T10:30:01.783Z,22.14
2018-10-12T10:31:01.785Z,22.04
2018-10-12T10:32:01.827Z,22.17
2018-10-12T10:33:01.785Z,22.25
2018-10-12T10:34:01.778Z,22.26
2018-10-12T10:35:01.794Z,22.18
2018-10-12T10:36:01.835Z,22.25
2018-10-12T10:37:01.801Z,22.32
2018-10-12T10:38:01.791Z,22.36
2018-10-12T10:39:01.864Z,22.38
2018-10-12T10:40:01.813Z,22.47
2018-10-12T10:41:01.812Z,22.41
2018-10-12T10:42:01.804Z,22.50
2018-10-12T10:43:01.811Z,22.62
2018-10-12T10:44:01.824Z,22.59
2018-10-12T10:45:01.819Z,22.44
2018-10-12T10:46:01.814Z,22.39
2018-10-12T10:47:02.035Z,22.35
2018-10-12T10:48:01.818Z,22.38
2018-10-12T10:49:01.837Z,22.47
2018-10-12T10:50:01.843Z,22.50
2018-10-12T10:51:01.830Z,22.44
2018-10-12T10:52:01.846Z,22.54
2018-10-12T10:53:01.835Z,22.60
2018-10-12T10:54:02.043Z,22.60
2018-10-12T10:55:01.844Z,22.68
2018-10-12T10:56:01.874Z,22.68
2018-10-12T10:57:02.053Z,22.57
2018-10-12T10:58:02.070Z,22.69
2018-10-12T10:59:01.886Z,22.66
2018-10-12T11:00:01.882Z,22.68
2018-10-12T11:01:02.008Z,22.73
2018-10-12T11:02:01.865Z,22.73
2018-10-12T11:03:02.088Z,22.93
2018-10-12T11:04:01.874Z,22.99
2018-10-12T11:05:01.879Z,22.98
2018-10-12T11:06:01.906Z,23.05
2018-10-12T11:07:01.910Z,22.98
2018-10-12T11:08:01.898Z,22.96
2018-10-12T11:09:01.918Z,23.02
2018-10-12T11:10:01.891Z,23.08
2018-10-12T11:11:01.908Z,23.09
2018-10-12T11:12:01.924Z,23.13
2018-10-12T11:13:01.998Z,23.05
2018-10-12T11:14:01.929Z,23.10
2018-10-12T11:15:01.937Z,23.15
2018-10-12T11:16:01.945Z,23.17
2018-10-12T11:17:01.930Z,23.15
2018-10-12T11:18:01.934Z,23.25
2018-10-12T11:19:01.950Z,23.18
2018-10-12T11:20:01.958Z,23.23
2018-10-12T11:21:01.930Z,23.34
2018-10-12T11:22:01.967Z,23.27
2018-10-12T11:23:01.953Z,23.47
2018-10-12T11:24:01.941Z,23.39
2018-10-12T11:25:01.956Z,23.31
2018-10-12T11:26:02.161Z,23.27
2018-10-12T11:27:01.949Z,23.40
2018-10-12T11:28:01.981Z,23.39
2018-10-12T11:29:01.969Z,23.36
2018-10-12T11:30:02.170Z,23.50
2018-10-12T11:31:02.168Z,23.36
2018-10-12T11:32:01.970Z,23.34
2018-10-12T11:33:02.032Z,23.31
2018-10-12T11:34:01.990Z,23.41
2018-10-12T11:35:01.978Z,23.48
2018-10-12T11:36:02.199Z,23.44
2018-10-12T11:37:01.988Z,23.58
2018-10-12T11:38:02.212Z,23.58
2018-10-12T11:39:01.992Z,23.58
2018-10-12T11:40:02.000Z,23.51
2018-10-12T11:41:02.012Z,23.48
2018-10-12T11:42:02.002Z,23.47
2018-10-12T11:43:02.020Z,23.44
2018-10-12T11:44:02.022Z,23.40
2018-10-12T11:45:02.129Z,23.44
2018-10-12T11:46:02.019Z,23.47
2018-10-12T11:47:02.025Z,23.46
2018-10-12T11:48:02.028Z,23.47
2018-10-12T11:49:02.042Z,23.39
2018-10-12T11:50:02.049Z,23.40
2018-10-12T11:51:02.044Z,23.51
2018-10-12T11:52:02.083Z,23.43
2018-10-12T11:53:02.058Z,23.43
2018-10-12T11:54:02.047Z,23.50
2018-10-12T11:55:02.081Z,23.50
2018-10-12T11:56:02.061Z,23.61
2018-10-12T11:57:02.062Z,23.58
2018-10-12T11:58:02.063Z,23.65
2018-10-12T11:59:02.078Z,23.74
2018-10-12T12:00:02.071Z,23.78
2018-10-12T12:01:02.145Z,23.71
2018-10-12T12:02:02.118Z,23.73
2018-10-12T12:03:02.118Z,23.81
2018-10-12T12:04:02.088Z,23.68
2018-10-12T12:05:02.091Z,23.66
2018-10-12T12:06:02.123Z,23.63
2018-10-12T12:07:02.101Z,23.71
2018-10-12T12:08:02.319Z,23.65
2018-10-12T12:09:02.108Z,23.63
2018-10-12T12:10:02.119Z,23.51
2018-10-12T12:11:02.140Z,23.59
2018-10-12T12:12:02.170Z,23.76
2018-10-12T12:13:02.135Z,23.73
2018-10-12T12:14:02.320Z,23.71
2018-10-12T12:15:02.142Z,23.76
2018-10-12T12:16:02.148Z,23.77
2018-10-12T12:17:02.139Z,23.66
2018-10-12T12:18:02.143Z,23.80
2018-10-12T12:19:02.162Z,23.77
2018-10-12T12:20:02.173Z,23.73
2018-10-12T12:21:02.377Z,23.84
2018-10-12T12:22:02.157Z,23.76
2018-10-12T12:23:02.367Z,23.86
2018-10-12T12:24:02.177Z,23.92
2018-10-12T12:25:02.173Z,23.93
2018-10-12T12:26:02.173Z,23.95
2018-10-12T12:27:02.179Z,23.93
2018-10-12T12:28:02.196Z,23.92
2018-10-12T12:29:02.200Z,23.88
2018-10-12T12:30:02.206Z,23.86
2018-10-12T12:31:02.219Z,23.83
2018-10-12T12:32:02.198Z,23.77
2018-10-12T12:33:02.408Z,23.87
2018-10-12T12:34:02.207Z,23.78
2018-10-12T12:35:02.357Z,23.77
2018-10-12T12:36:02.580Z,23.91
2018-10-12T12:37:02.221Z,24.06
2018-10-12T12:38:02.430Z,24.21
2018-10-12T12:39:02.229Z,24.21
2018-10-12T12:40:02.234Z,24.16
2018-10-12T12:41:02.281Z,24.17
2018-10-12T12:42:02.249Z,24.16
2018-10-12T12:43:02.270Z,24.18
2018-10-12T12:44:02.252Z,24.21
2018-10-12T12:45:02.250Z,24.14
2018-10-12T12:46:02.258Z,24.23
2018-10-12T12:47:02.291Z,24.24
2018-10-12T12:48:02.486Z,24.36
2018-10-12T12:49:02.700Z,24.47
2018-10-12T12:50:02.275Z,24.45
2018-10-12T12:51:02.287Z,24.43
2018-10-12T12:52:02.281Z,24.47